createdAt,value
2022-09-23T00:00:35.817Z,96.69
2022-09-23T00:01:35.879Z,96.58
2022-09-23T00:02:36.234Z,96.69
2022-09-23T00:03:35.776Z,96.89
2022-09-23T00:04:35.763Z,97.10
2022-09-23T00:05:35.755Z,97.36
2022-09-23T00:06:35.744Z,97.36
2022-09-23T00:07:36.143Z,97.32
2022-09-23T00:08:35.717Z,97.42
2022-09-23T00:09:35.692Z,97.32
2022-09-23T00:10:35.682Z,97.32
2022-09-23T00:11:35.679Z,97.47
2022-09-23T00:12:36.091Z,97.42
2022-09-23T00:13:35.644Z,97.32
2022-09-23T00:14:35.646Z,97.26
2022-09-23T00:15:35.620Z,97.26
2022-09-23T00:16:35.677Z,97.26
2022-09-23T00:17:35.961Z,97.26
2022-09-23T00:18:35.589Z,97.26
2022-09-23T00:19:35.579Z,97.26
2022-09-23T00:20:35.560Z,97.16
2022-09-23T00:21:35.548Z,97.06
2022-09-23T00:22:35.885Z,96.95
2022-09-23T00:23:35.527Z,96.95
2022-09-23T00:24:35.555Z,96.95
2022-09-23T00:25:35.494Z,97.06
2022-09-23T00:26:35.488Z,97.06
2022-09-23T00:27:35.887Z,96.95
2022-09-23T00:28:35.464Z,97.06
2022-09-23T00:29:35.448Z,97.16
2022-09-23T00:30:35.511Z,97.26
2022-09-23T00:31:35.426Z,97.26
2022-09-23T00:32:35.837Z,97.16
2022-09-23T00:33:35.397Z,97.16
2022-09-23T00:34:35.383Z,97.31
2022-09-23T00:35:35.372Z,97.20
2022-09-23T00:36:35.372Z,97.20
2022-09-23T00:37:35.771Z,97.10
2022-09-23T00:38:35.338Z,97.10
2022-09-23T00:39:35.312Z,97.20
2022-09-23T00:40:35.328Z,97.31
2022-09-23T00:41:35.291Z,97.31
2022-09-23T00:42:35.663Z,97.41
2022-09-23T00:43:35.263Z,97.31
2022-09-23T00:44:35.254Z,97.20
2022-09-23T00:45:35.249Z,97.20
2022-09-23T00:46:35.345Z,97.20
2022-09-23T00:47:35.644Z,97.20
2022-09-23T00:48:35.201Z,97.20
2022-09-23T00:49:35.192Z,97.14
2022-09-23T00:50:35.171Z,97.25
2022-09-23T00:51:35.169Z,97.25
2022-09-23T00:52:35.582Z,97.35
2022-09-23T00:53:35.139Z,97.45
2022-09-23T00:54:35.126Z,97.56
2022-09-23T00:55:35.124Z,97.66
2022-09-23T00:56:35.099Z,97.87
2022-09-23T00:57:35.489Z,97.93
2022-09-23T00:58:35.070Z,97.93
2022-09-23T00:59:35.058Z,97.93
2022-09-23T01:00:35.048Z,97.93
2022-09-23T01:01:35.107Z,98.13
2022-09-23T01:02:35.396Z,98.13
2022-09-23T01:03:35.017Z,98.13
2022-09-23T01:04:34.997Z,98.13
2022-09-23T01:05:34.997Z,98.13
2022-09-23T01:06:34.978Z,98.13
2022-09-23T01:07:35.385Z,98.24
2022-09-23T01:08:34.958Z,98.34
2022-09-23T01:09:34.944Z,98.44
2022-09-23T01:10:34.914Z,98.40
2022-09-23T01:11:34.920Z,98.40
2022-09-23T01:12:35.313Z,98.34
2022-09-23T01:13:34.883Z,98.24
2022-09-23T01:14:34.871Z,98.03
2022-09-23T01:15:34.863Z,98.08
2022-09-23T01:16:34.895Z,98.08
2022-09-23T01:17:35.192Z,97.97
2022-09-23T01:18:34.812Z,97.87
2022-09-23T01:19:34.814Z,97.87
2022-09-23T01:20:34.793Z,97.87
2022-09-23T01:21:34.786Z,97.77
2022-09-23T01:22:34.781Z,97.77
2022-09-23T01:23:35.165Z,97.60
2022-09-23T01:24:34.742Z,97.50
2022-09-23T01:25:34.742Z,97.39
2022-09-23T01:26:34.721Z,97.29
2022-09-23T01:27:34.729Z,97.29
2022-09-23T01:28:35.047Z,97.29
2022-09-23T01:29:34.689Z,97.50
2022-09-23T01:30:34.693Z,97.71
2022-09-23T01:31:34.661Z,97.81
2022-09-23T01:32:34.646Z,97.71
2022-09-23T01:33:34.975Z,97.71
2022-09-23T01:34:34.628Z,97.71
2022-09-23T01:35:34.636Z,97.71
2022-09-23T01:36:34.597Z,97.81
2022-09-23T01:37:34.584Z,97.91
2022-09-23T01:38:34.996Z,97.91
2022-09-23T01:39:34.566Z,97.97
2022-09-23T01:40:34.611Z,97.91
2022-09-23T01:41:34.536Z,97.81
2022-09-23T01:42:34.514Z,97.91
2022-09-23T01:43:34.939Z,97.91
2022-09-23T01:44:34.494Z,97.81
2022-09-23T01:45:34.479Z,97.91
2022-09-23T01:46:34.465Z,98.02
2022-09-23T01:47:42.477Z,97.91
2022-09-23T01:48:41.835Z,97.87
2022-09-23T01:49:41.433Z,97.91
2022-09-23T01:50:34.581Z,97.91
2022-09-23T01:51:34.402Z,98.02
2022-09-23T01:52:34.382Z,98.08
2022-09-23T01:53:34.828Z,98.08
2022-09-23T01:54:34.371Z,97.97
2022-09-23T01:55:34.362Z,97.97
2022-09-23T01:56:34.341Z,97.87
2022-09-23T01:57:34.346Z,97.77
2022-09-23T01:58:34.740Z,97.81
2022-09-23T01:59:34.307Z,97.71
2022-09-23T02:00:34.292Z,97.60
2022-09-23T02:01:34.373Z,97.39
2022-09-23T02:02:34.321Z,97.29
2022-09-23T02:03:34.619Z,97.19
2022-09-23T02:04:34.239Z,97.19
2022-09-23T02:05:34.237Z,97.34
2022-09-23T02:06:34.218Z,97.24
2022-09-23T02:07:34.208Z,97.44
2022-09-23T02:08:34.637Z,97.44
2022-09-23T02:09:34.177Z,97.50
2022-09-23T02:10:34.165Z,97.50
2022-09-23T02:11:34.150Z,97.44
2022-09-23T02:12:34.145Z,97.55
2022-09-23T02:13:34.538Z,97.44
2022-09-23T02:14:34.114Z,97.44
2022-09-23T02:15:34.101Z,97.44
2022-09-23T02:16:34.134Z,97.44
2022-09-23T02:17:34.080Z,97.65
2022-09-23T02:18:34.423Z,97.65
2022-09-23T02:19:34.048Z,97.55
2022-09-23T02:20:34.033Z,97.44
2022-09-23T02:21:34.027Z,97.55
2022-09-23T02:22:34.012Z,97.65
2022-09-23T02:23:34.332Z,97.65
2022-09-23T02:24:33.982Z,97.65
2022-09-23T02:25:33.979Z,97.75
2022-09-23T02:26:33.961Z,97.86
2022-09-23T02:27:33.943Z,97.86
2022-09-23T02:28:34.354Z,97.86
2022-09-23T02:29:33.922Z,97.96
2022-09-23T02:30:33.937Z,98.02
2022-09-23T02:31:33.943Z,98.02
2022-09-23T02:32:33.886Z,98.02
2022-09-23T02:33:34.285Z,97.91
2022-09-23T02:34:33.880Z,97.96
2022-09-23T02:35:33.849Z,97.96
2022-09-23T02:36:33.835Z,97.96
2022-09-23T02:37:33.828Z,97.96
2022-09-23T02:38:34.169Z,97.86
2022-09-23T02:39:33.792Z,97.75
2022-09-23T02:40:33.805Z,97.80
2022-09-23T02:41:33.767Z,97.80
2022-09-23T02:42:33.758Z,97.80
2022-09-23T02:43:34.179Z,97.90
2022-09-23T02:44:33.728Z,97.90
2022-09-23T02:45:33.826Z,97.90
2022-09-23T02:46:33.697Z,97.80
2022-09-23T02:47:33.697Z,97.69
2022-09-23T02:48:34.110Z,97.69
2022-09-23T02:49:33.676Z,97.80
2022-09-23T02:50:33.754Z,97.80
2022-09-23T02:51:33.645Z,97.90
2022-09-23T02:52:33.618Z,97.90
2022-09-23T02:53:33.973Z,98.00
2022-09-23T02:54:33.608Z,98.11
2022-09-23T02:55:33.586Z,98.00
2022-09-23T02:56:33.579Z,97.90
2022-09-23T02:57:33.563Z,98.11
2022-09-23T02:58:33.978Z,98.11
2022-09-23T02:59:33.539Z,98.11
2022-09-23T03:00:33.514Z,98.11
2022-09-23T03:01:33.544Z,97.90
2022-09-23T03:02:33.555Z,97.90
2022-09-23T03:03:33.920Z,97.90
2022-09-23T03:04:33.471Z,97.80
2022-09-23T03:05:33.470Z,97.80
2022-09-23T03:06:33.450Z,97.80
2022-09-23T03:07:33.440Z,97.80
2022-09-23T03:08:33.787Z,97.90
2022-09-23T03:09:33.417Z,97.90
2022-09-23T03:10:33.499Z,97.90
2022-09-23T03:11:33.400Z,97.90
2022-09-23T03:12:33.368Z,97.80
2022-09-23T03:13:33.778Z,97.80
2022-09-23T03:14:33.343Z,97.69
2022-09-23T03:15:33.341Z,97.69
2022-09-23T03:16:33.358Z,97.59
2022-09-23T03:17:33.308Z,97.69
2022-09-23T03:18:33.291Z,97.80
2022-09-23T03:19:33.706Z,97.90
2022-09-23T03:20:33.257Z,98.00
2022-09-23T03:21:33.259Z,97.90
2022-09-23T03:22:33.235Z,97.80
2022-09-23T03:23:33.225Z,97.80
2022-09-23T03:24:33.581Z,97.69
2022-09-23T03:25:33.223Z,97.69
2022-09-23T03:26:33.185Z,97.49
2022-09-23T03:27:33.175Z,97.64
2022-09-23T03:28:33.173Z,97.69
2022-09-23T03:29:33.503Z,97.59
2022-09-23T03:30:33.132Z,97.69
2022-09-23T03:31:33.188Z,97.69
2022-09-23T03:32:33.122Z,97.69
2022-09-23T03:33:33.104Z,97.69
2022-09-23T03:34:33.513Z,97.80
2022-09-23T03:35:33.078Z,97.90
2022-09-23T03:36:33.062Z,97.90
2022-09-23T03:37:33.050Z,97.90
2022-09-23T03:38:33.031Z,97.90
2022-09-23T03:39:33.390Z,98.00
2022-09-23T03:40:33.039Z,98.00
2022-09-23T03:41:33.014Z,98.00
2022-09-23T03:42:32.979Z,98.21
2022-09-23T03:43:36.570Z,98.21
2022-09-23T03:44:34.400Z,98.32
2022-09-23T03:45:33.022Z,98.21
2022-09-23T03:46:32.928Z,98.32
2022-09-23T03:47:32.915Z,98.32
2022-09-23T03:48:32.908Z,98.21
2022-09-23T03:49:33.317Z,98.21
2022-09-23T03:50:32.882Z,98.32
2022-09-23T03:51:32.867Z,98.32
2022-09-23T03:52:32.846Z,98.21
2022-09-23T03:53:32.842Z,98.21
2022-09-23T03:54:33.187Z,98.21
2022-09-23T03:55:32.813Z,98.11
2022-09-23T03:56:32.804Z,98.11
2022-09-23T03:57:32.795Z,98.11
2022-09-23T03:58:32.772Z,98.05
2022-09-23T03:59:33.186Z,98.05
2022-09-23T04:00:35.495Z,98.16
2022-09-23T04:01:32.975Z,98.16
2022-09-23T04:02:32.746Z,98.21
2022-09-23T04:03:32.724Z,98.21
2022-09-23T04:04:33.012Z,98.21
2022-09-23T04:05:32.696Z,98.21
2022-09-23T04:06:32.672Z,98.26
2022-09-23T04:07:32.663Z,98.36
2022-09-23T04:08:32.661Z,98.26
2022-09-23T04:09:33.078Z,98.36
2022-09-23T04:10:32.620Z,98.36
2022-09-23T04:11:32.611Z,98.36
2022-09-23T04:12:32.647Z,98.26
2022-09-23T04:13:32.580Z,98.26
2022-09-23T04:14:32.933Z,98.36
2022-09-23T04:15:32.579Z,98.36
2022-09-23T04:16:32.586Z,98.47
2022-09-23T04:17:32.528Z,98.36
2022-09-23T04:18:32.521Z,98.36
2022-09-23T04:19:32.886Z,98.47
2022-09-23T04:20:32.496Z,98.36
2022-09-23T04:21:32.483Z,98.47
2022-09-23T04:22:32.459Z,98.36
2022-09-23T04:23:39.472Z,98.26
2022-09-23T04:24:32.815Z,98.26
2022-09-23T04:25:32.422Z,98.26
2022-09-23T04:26:32.403Z,98.16
2022-09-23T04:27:36.888Z,98.26
2022-09-23T04:28:33.396Z,98.26
2022-09-23T04:29:39.804Z,98.26
2022-09-23T04:30:32.356Z,98.36
2022-09-23T04:31:32.417Z,98.36
2022-09-23T04:32:32.334Z,98.26
2022-09-23T04:33:32.331Z,98.26
2022-09-23T04:34:32.683Z,98.26
2022-09-23T04:35:34.043Z,98.26
2022-09-23T04:36:32.282Z,98.26
2022-09-23T04:37:32.271Z,98.10
2022-09-23T04:38:32.256Z,98.20
2022-09-23T04:39:32.599Z,97.99
2022-09-23T04:40:32.336Z,97.99
2022-09-23T04:41:32.229Z,98.10
2022-09-23T04:42:32.211Z,98.20
2022-09-23T04:43:32.211Z,98.20
2022-09-23T04:44:32.632Z,98.20
2022-09-23T04:45:32.180Z,98.20
2022-09-23T04:46:32.200Z,98.20
2022-09-23T04:47:32.152Z,98.20
2022-09-23T04:48:32.119Z,98.10
2022-09-23T04:49:32.146Z,98.10
2022-09-23T04:50:32.106Z,98.20
2022-09-23T04:51:32.092Z,98.20
2022-09-23T04:52:32.096Z,98.20
2022-09-23T04:53:32.067Z,98.24
2022-09-23T04:54:32.378Z,98.24
2022-09-23T04:55:32.047Z,98.24
2022-09-23T04:56:32.027Z,98.24
2022-09-23T04:57:32.016Z,98.14
2022-09-23T04:58:32.002Z,98.14
2022-09-23T04:59:32.018Z,98.14
2022-09-23T05:00:32.020Z,98.14
2022-09-23T05:01:32.073Z,98.24
2022-09-23T05:02:32.088Z,98.24
2022-09-23T05:03:32.095Z,98.14
2022-09-23T05:04:32.305Z,98.03
2022-09-23T05:05:31.917Z,98.03
2022-09-23T05:06:31.905Z,98.03
2022-09-23T05:07:31.894Z,98.03
2022-09-23T05:08:31.874Z,97.93
2022-09-23T05:09:32.169Z,97.93
2022-09-23T05:10:31.833Z,98.03
2022-09-23T05:11:31.830Z,98.14
2022-09-23T05:12:31.832Z,98.24
2022-09-23T05:13:31.834Z,98.30
2022-09-23T05:14:32.123Z,98.20
2022-09-23T05:15:31.791Z,98.30
2022-09-23T05:16:31.846Z,98.20
2022-09-23T05:17:31.755Z,98.30
2022-09-23T05:18:31.744Z,98.30
2022-09-23T05:19:32.063Z,98.20
2022-09-23T05:20:31.715Z,98.20
2022-09-23T05:21:31.730Z,98.30
2022-09-23T05:22:31.699Z,98.30
2022-09-23T05:23:31.693Z,98.30
2022-09-23T05:24:31.718Z,98.30
2022-09-23T05:25:35.113Z,98.30
2022-09-23T05:26:32.639Z,98.30
2022-09-23T05:27:31.634Z,98.41
2022-09-23T05:28:31.627Z,98.30
2022-09-23T05:29:31.918Z,98.30
2022-09-23T05:30:31.587Z,98.16
2022-09-23T05:31:31.608Z,98.16
2022-09-23T05:32:31.563Z,98.05
2022-09-23T05:33:31.556Z,97.95
2022-09-23T05:34:31.976Z,97.95
2022-09-23T05:35:31.532Z,97.95
2022-09-23T05:36:35.562Z,97.95
2022-09-23T05:37:32.515Z,97.85
2022-09-23T05:38:31.488Z,97.90
2022-09-23T05:39:31.791Z,97.69
2022-09-23T05:40:31.517Z,97.69
2022-09-23T05:41:31.441Z,97.59
2022-09-23T05:42:31.446Z,97.59
2022-09-23T05:43:31.428Z,97.59
2022-09-23T05:44:31.442Z,97.49
2022-09-23T05:45:31.402Z,97.65
2022-09-23T05:46:31.458Z,97.75
2022-09-23T05:47:31.371Z,97.55
2022-09-23T05:48:31.360Z,97.65
2022-09-23T05:49:55.248Z,97.65
2022-09-23T05:50:32.343Z,97.65
2022-09-23T05:51:31.721Z,97.50
2022-09-23T05:52:31.300Z,97.50
2022-09-23T05:53:31.304Z,97.50
2022-09-23T05:54:31.737Z,97.50
2022-09-23T05:55:31.267Z,97.45
2022-09-23T05:56:31.259Z,97.35
2022-09-23T05:57:31.241Z,97.25
2022-09-23T05:58:31.239Z,97.25
2022-09-23T05:59:31.640Z,97.00
2022-09-23T06:00:31.210Z,96.89
2022-09-23T06:01:31.291Z,96.79
2022-09-23T06:02:31.275Z,96.79
2022-09-23T06:03:31.172Z,96.58
2022-09-23T06:04:31.507Z,96.58
2022-09-23T06:05:31.147Z,96.48
2022-09-23T06:06:31.135Z,96.23
2022-09-23T06:07:31.115Z,96.12
2022-09-23T06:08:31.109Z,95.92
2022-09-23T06:09:36.153Z,95.92
2022-09-23T06:10:32.087Z,95.67
2022-09-23T06:11:31.068Z,95.46
2022-09-23T06:12:31.054Z,95.25
2022-09-23T06:13:31.045Z,95.04
2022-09-23T06:14:31.375Z,94.90
2022-09-23T06:15:31.021Z,94.79
2022-09-23T06:16:31.062Z,94.59
2022-09-23T06:17:31.001Z,94.48
2022-09-23T06:18:30.984Z,94.13
2022-09-23T06:19:31.355Z,94.03
2022-09-23T06:20:30.954Z,93.78
2022-09-23T06:21:30.939Z,93.68
2022-09-23T06:22:30.952Z,93.28
2022-09-23T06:23:30.913Z,92.22
2022-09-23T06:24:31.838Z,90.18
2022-09-23T06:25:30.890Z,88.14
2022-09-23T06:26:30.880Z,86.21
2022-09-23T06:27:30.872Z,85.72
2022-09-23T06:28:30.853Z,84.34
2022-09-23T06:29:31.218Z,82.97
2022-09-23T06:30:30.827Z,82.63
2022-09-23T06:31:30.906Z,81.67
2022-09-23T06:32:30.808Z,81.52
2022-09-23T06:33:36.058Z,80.40
2022-09-23T06:34:37.309Z,80.30
2022-09-23T06:35:31.758Z,80.19
2022-09-23T06:36:41.429Z,80.57
2022-09-23T06:37:31.728Z,79.03
2022-09-23T06:38:30.727Z,78.49
2022-09-23T06:39:30.714Z,77.87
2022-09-23T06:40:31.072Z,78.55
2022-09-23T06:41:30.697Z,77.87
2022-09-23T06:42:30.680Z,78.34
2022-09-23T06:43:30.654Z,77.80
2022-09-23T06:44:30.645Z,77.29
2022-09-23T06:45:30.888Z,77.35
2022-09-23T06:46:30.698Z,76.23
2022-09-23T06:47:30.624Z,75.07
2022-09-23T06:48:30.593Z,76.06
2022-09-23T06:49:30.574Z,75.24
2022-09-23T06:50:31.007Z,75.51
2022-09-23T06:51:30.553Z,73.88
2022-09-23T06:52:30.535Z,73.77
2022-09-23T06:53:30.587Z,73.43
2022-09-23T06:54:30.522Z,73.40
2022-09-23T06:55:31.075Z,73.40
2022-09-23T06:56:33.628Z,72.14
2022-09-23T06:58:40.645Z,70.89
2022-09-23T06:59:47.622Z,70.17
2022-09-23T07:00:48.038Z,70.34
2022-09-23T07:01:47.734Z,69.60
2022-09-23T07:02:47.648Z,68.96
2022-09-23T07:03:47.587Z,68.65
2022-09-23T07:04:40.558Z,68.75
2022-09-23T07:05:40.904Z,69.80
2022-09-23T07:06:40.532Z,69.97
2022-09-23T07:07:40.531Z,70.68
2022-09-23T07:08:40.518Z,71.53
2022-09-23T07:09:40.496Z,72.79
2022-09-23T07:10:40.909Z,73.03
2022-09-23T07:11:40.466Z,74.18
2022-09-23T07:12:40.456Z,74.25
2022-09-23T07:13:40.454Z,73.60
2022-09-23T07:14:40.425Z,72.89
2022-09-23T07:15:40.934Z,73.33
2022-09-23T07:16:40.405Z,73.43
2022-09-23T07:17:40.397Z,73.47
2022-09-23T07:18:40.365Z,72.11
2022-09-23T07:19:40.365Z,71.60
2022-09-23T07:20:40.715Z,70.95
2022-09-23T07:21:40.335Z,70.82
2022-09-23T07:22:40.322Z,70.51
2022-09-23T07:23:40.336Z,69.36
2022-09-23T07:24:40.306Z,68.55
2022-09-23T07:25:40.393Z,67.91
2022-09-23T07:26:45.458Z,68.69
2022-09-23T07:27:41.260Z,66.72
2022-09-23T07:28:40.266Z,67.50
2022-09-23T07:29:46.216Z,67.00
2022-09-23T07:30:51.997Z,67.30
2022-09-23T07:31:41.635Z,67.33
2022-09-23T07:32:48.169Z,68.52
2022-09-23T07:33:41.231Z,68.59
2022-09-23T07:34:40.166Z,67.94
2022-09-23T07:35:40.162Z,65.37
2022-09-23T07:36:40.701Z,65.45
2022-09-23T07:37:40.110Z,65.92
2022-09-23T07:38:44.898Z,65.01
2022-09-23T07:39:41.089Z,64.27
2022-09-23T07:40:40.441Z,65.01
2022-09-23T07:41:40.061Z,65.11
2022-09-23T07:42:40.060Z,65.42
2022-09-23T07:43:40.043Z,65.31
2022-09-23T07:44:40.022Z,65.52
2022-09-23T07:45:40.057Z,65.31
2022-09-23T07:46:40.558Z,65.99
2022-09-23T07:47:40.003Z,66.69
2022-09-23T07:48:39.991Z,65.85
2022-09-23T07:49:39.988Z,65.21
2022-09-23T07:50:40.228Z,63.96
2022-09-23T07:51:39.962Z,63.86
2022-09-23T07:52:39.929Z,63.83
2022-09-23T07:53:39.910Z,62.82
2022-09-23T07:54:39.901Z,63.32
2022-09-23T07:55:39.881Z,63.02
2022-09-23T07:56:40.293Z,64.34
2022-09-23T07:57:39.864Z,63.93
2022-09-23T07:58:39.849Z,63.63
2022-09-23T07:59:39.851Z,63.23
2022-09-23T08:00:39.846Z,62.99
2022-09-23T08:01:40.400Z,63.50
2022-09-23T08:02:39.856Z,63.98
2022-09-23T08:03:39.783Z,62.15
2022-09-23T08:04:39.771Z,60.61
2022-09-23T08:05:39.746Z,60.88
2022-09-23T08:06:40.148Z,61.82
2022-09-23T08:07:39.728Z,61.95
2022-09-23T08:08:39.706Z,63.40
2022-09-23T08:09:39.710Z,64.11
2022-09-23T08:10:40.042Z,64.34
2022-09-23T08:11:39.680Z,65.08
2022-09-23T08:12:39.662Z,65.04
2022-09-23T08:13:39.669Z,66.52
2022-09-23T08:14:39.637Z,67.94
2022-09-23T08:15:39.681Z,68.59
2022-09-23T08:16:40.049Z,67.91
2022-09-23T08:17:39.588Z,68.62
2022-09-23T08:18:39.591Z,69.02
2022-09-23T08:19:39.605Z,67.16
2022-09-23T08:20:42.551Z,66.05
2022-09-23T08:21:40.967Z,66.12
2022-09-23T08:22:39.541Z,66.32
2022-09-23T08:23:39.517Z,66.72
2022-09-23T08:24:39.517Z,66.63
2022-09-23T08:25:39.495Z,66.25
2022-09-23T08:26:39.820Z,68.21
2022-09-23T08:27:39.467Z,68.92
2022-09-23T08:28:39.456Z,68.52
2022-09-23T08:29:39.437Z,68.32
2022-09-23T08:30:39.454Z,68.72
2022-09-23T08:31:39.859Z,68.72
2022-09-23T08:32:39.405Z,68.52
2022-09-23T08:33:39.390Z,69.53
2022-09-23T08:34:39.398Z,69.53
2022-09-23T08:35:39.357Z,69.30
2022-09-23T08:36:39.767Z,69.06
2022-09-23T08:37:39.348Z,68.15
2022-09-23T08:38:39.332Z,67.91
2022-09-23T08:39:39.402Z,66.63
2022-09-23T08:40:39.363Z,67.47
2022-09-23T08:41:39.715Z,68.69
2022-09-23T08:42:39.275Z,68.49
2022-09-23T08:43:39.255Z,68.79
2022-09-23T08:44:39.245Z,68.28
2022-09-23T08:45:43.394Z,68.38
2022-09-23T08:46:39.534Z,67.94
2022-09-23T08:47:39.223Z,68.15
2022-09-23T08:48:40.806Z,68.05
2022-09-23T08:49:39.174Z,68.05
2022-09-23T08:50:39.163Z,67.41
2022-09-23T08:51:39.604Z,66.80
2022-09-23T08:52:39.154Z,66.83
2022-09-23T08:53:39.174Z,66.83
2022-09-23T08:54:39.374Z,67.13
2022-09-23T08:55:39.111Z,68.35
2022-09-23T08:56:39.532Z,68.42
2022-09-23T08:57:39.094Z,67.41
2022-09-23T08:58:39.061Z,68.01
2022-09-23T08:59:39.051Z,67.38
2022-09-23T09:00:39.032Z,67.38
2022-09-23T09:01:39.665Z,66.77
2022-09-23T09:02:39.163Z,67.24
2022-09-23T09:03:39.019Z,66.83
2022-09-23T09:04:39.082Z,66.94
2022-09-23T09:05:38.962Z,66.70
2022-09-23T09:06:52.393Z,66.16
2022-09-23T09:07:39.972Z,66.33
2022-09-23T09:08:38.942Z,65.42
2022-09-23T09:09:38.974Z,63.90
2022-09-23T09:10:38.946Z,64.72
2022-09-23T09:11:39.472Z,65.76
2022-09-23T09:12:39.211Z,65.99
2022-09-23T09:13:39.031Z,66.23
2022-09-23T09:14:38.842Z,66.53
2022-09-23T09:15:38.884Z,67.07
2022-09-23T09:16:58.379Z,67.24
2022-09-23T09:17:39.803Z,67.14
2022-09-23T09:18:38.801Z,67.31
2022-09-23T09:19:38.980Z,66.91
2022-09-23T09:20:38.770Z,66.57
2022-09-23T09:21:38.790Z,66.24
2022-09-23T09:22:39.118Z,65.53
2022-09-23T09:23:38.720Z,65.39
2022-09-23T09:24:38.728Z,64.69
2022-09-23T09:25:38.719Z,64.15
2022-09-23T09:26:38.709Z,63.61
2022-09-23T09:27:38.710Z,63.81
2022-09-23T09:28:38.999Z,62.40
2022-09-23T09:29:38.981Z,63.31
2022-09-23T09:30:38.673Z,62.33
2022-09-23T09:31:39.035Z,62.86
2022-09-23T09:32:40.386Z,63.09
2022-09-23T09:33:38.599Z,64.01
2022-09-23T09:34:38.659Z,64.31
2022-09-23T09:35:38.609Z,63.78
2022-09-23T09:36:38.562Z,64.48
2022-09-23T09:37:39.126Z,64.69
2022-09-23T09:38:38.839Z,64.25
2022-09-23T09:39:38.518Z,63.95
2022-09-23T09:40:38.801Z,63.51
2022-09-23T09:41:38.487Z,63.08
2022-09-23T09:42:39.010Z,63.15
2022-09-23T09:43:43.373Z,61.25
2022-09-23T09:44:39.459Z,61.69
2022-09-23T09:45:38.551Z,62.50
2022-09-23T09:46:38.515Z,63.21
2022-09-23T09:47:38.817Z,63.54
2022-09-23T09:48:38.409Z,63.41
2022-09-23T09:49:40.665Z,63.01
2022-09-23T09:50:38.468Z,63.41
2022-09-23T09:51:38.613Z,62.77
2022-09-23T09:52:39.554Z,61.99
2022-09-23T09:53:38.678Z,61.92
2022-09-23T09:54:38.274Z,62.33
2022-09-23T09:55:38.360Z,62.66
2022-09-23T09:56:38.816Z,62.96
2022-09-23T09:57:38.532Z,62.86
2022-09-23T09:58:38.546Z,63.07
2022-09-23T09:59:38.213Z,64.31
2022-09-23T10:00:38.184Z,63.87
2022-09-23T10:01:38.261Z,63.67
2022-09-23T10:02:38.592Z,64.48
2022-09-23T10:03:38.155Z,63.78
2022-09-23T10:04:38.176Z,64.45
2022-09-23T10:05:38.118Z,64.45
2022-09-23T10:06:38.099Z,64.04
2022-09-23T10:07:38.389Z,63.95
2022-09-23T10:08:38.087Z,64.32
2022-09-23T10:09:38.069Z,64.52
2022-09-23T10:10:38.050Z,64.09
2022-09-23T10:11:38.036Z,64.39
2022-09-23T10:12:38.028Z,63.48
2022-09-23T10:13:38.318Z,63.68
2022-09-23T10:14:38.005Z,63.76
2022-09-23T10:15:42.418Z,62.34
2022-09-23T10:16:39.024Z,62.47
2022-09-23T10:17:37.959Z,63.99
2022-09-23T10:18:38.344Z,64.62
2022-09-23T10:19:37.928Z,65.03
2022-09-23T10:20:37.915Z,64.32
2022-09-23T10:21:37.913Z,65.47
2022-09-23T10:22:38.427Z,65.77
2022-09-23T10:23:37.884Z,65.97
2022-09-23T10:24:37.864Z,66.04
2022-09-23T10:25:37.852Z,65.00
2022-09-23T10:26:37.844Z,65.70
2022-09-23T10:27:37.833Z,65.30
2022-09-23T10:28:38.206Z,63.68
2022-09-23T10:29:37.840Z,64.19
2022-09-23T10:30:37.888Z,63.76
2022-09-23T10:31:37.775Z,64.36
2022-09-23T10:32:37.774Z,64.46
2022-09-23T10:33:38.167Z,64.23
2022-09-23T10:34:37.734Z,64.13
2022-09-23T10:35:37.762Z,63.82
2022-09-23T10:36:42.381Z,63.52
2022-09-23T10:37:38.707Z,64.13
2022-09-23T10:38:37.988Z,64.64
2022-09-23T10:39:37.666Z,64.81
2022-09-23T10:40:37.724Z,64.70
2022-09-23T10:41:37.651Z,64.78
2022-09-23T10:42:37.642Z,64.58
2022-09-23T10:43:38.055Z,64.37
2022-09-23T10:44:37.626Z,63.73
2022-09-23T10:45:39.824Z,62.65
2022-09-23T10:46:38.685Z,63.36
2022-09-23T10:47:37.568Z,63.67
2022-09-23T10:48:37.984Z,62.79
2022-09-23T10:49:37.541Z,63.59
2022-09-23T10:50:37.539Z,63.39
2022-09-23T10:51:37.512Z,62.88
2022-09-23T10:52:37.508Z,62.79
2022-09-23T10:53:37.826Z,62.99
2022-09-23T10:54:37.482Z,62.88
2022-09-23T10:55:37.464Z,63.49
2022-09-23T10:56:37.455Z,64.20
2022-09-23T10:57:37.443Z,64.40
2022-09-23T10:58:37.783Z,64.40
2022-09-23T10:59:37.425Z,63.96
2022-09-23T11:00:37.406Z,64.67
2022-09-23T11:01:37.435Z,61.65
2022-09-23T11:02:37.376Z,61.95
2022-09-23T11:03:37.676Z,61.72
2022-09-23T11:04:37.433Z,62.52
2022-09-23T11:05:37.345Z,61.61
2022-09-23T11:06:37.337Z,61.11
2022-09-23T11:07:37.497Z,60.88
2022-09-23T11:08:37.554Z,60.28
2022-09-23T11:09:37.297Z,61.18
2022-09-23T11:10:46.261Z,60.75
2022-09-23T11:11:38.266Z,60.75
2022-09-23T11:12:37.256Z,61.25
2022-09-23T11:13:37.301Z,61.13
2022-09-23T11:14:37.236Z,60.63
2022-09-23T11:15:37.215Z,59.64
2022-09-23T11:16:37.275Z,60.25
2022-09-23T11:17:37.207Z,60.35
2022-09-23T11:18:37.574Z,60.75
2022-09-23T11:19:39.332Z,60.96
2022-09-23T11:20:37.249Z,61.36
2022-09-23T11:21:37.134Z,61.33
2022-09-23T11:22:37.140Z,61.43
2022-09-23T11:23:37.102Z,61.73
2022-09-23T11:24:37.412Z,61.20
2022-09-23T11:25:37.084Z,60.80
2022-09-23T11:26:37.282Z,60.60
2022-09-23T11:27:37.071Z,60.42
2022-09-23T11:28:37.523Z,60.02
2022-09-23T11:29:37.050Z,60.42
2022-09-23T11:30:37.061Z,60.93
2022-09-23T11:31:37.024Z,61.33
2022-09-23T11:32:36.992Z,62.10
2022-09-23T11:33:37.134Z,61.60
2022-09-23T11:34:37.404Z,61.00
2022-09-23T11:35:36.952Z,59.39
2022-09-23T11:36:36.955Z,59.08
2022-09-23T11:37:36.934Z,59.52
2022-09-23T11:38:36.921Z,59.39
2022-09-23T11:39:37.409Z,60.19
2022-09-23T11:40:39.849Z,60.49
2022-09-23T11:41:37.890Z,60.27
2022-09-23T11:42:37.320Z,60.57
2022-09-23T11:43:36.854Z,60.74
2022-09-23T11:44:36.865Z,60.13
2022-09-23T11:45:36.865Z,60.24
2022-09-23T11:46:36.811Z,60.24
2022-09-23T11:47:39.751Z,60.44
2022-09-23T11:48:36.783Z,60.53
2022-09-23T11:49:37.223Z,59.94
2022-09-23T11:50:36.764Z,60.31
2022-09-23T11:51:36.757Z,59.70
2022-09-23T11:52:36.736Z,59.50
2022-09-23T11:53:36.855Z,59.10
2022-09-23T11:54:36.854Z,58.20
2022-09-23T11:55:37.037Z,58.00
2022-09-23T11:56:37.606Z,57.50
2022-09-23T11:57:45.542Z,57.17
2022-09-23T11:58:37.686Z,57.26
2022-09-23T11:59:39.939Z,55.96
2022-09-23T12:00:36.635Z,56.56
2022-09-23T12:01:37.837Z,55.55
2022-09-23T12:02:36.692Z,56.16
2022-09-23T12:03:42.985Z,54.85
2022-09-23T12:04:43.886Z,55.05
2022-09-23T12:05:37.730Z,54.96
2022-09-23T12:06:36.602Z,56.76
2022-09-23T12:07:36.539Z,55.28
2022-09-23T12:08:36.536Z,56.19
2022-09-23T12:09:57.305Z,55.58
2022-09-23T12:10:38.018Z,56.86
2022-09-23T12:11:36.493Z,56.66
2022-09-23T12:12:36.478Z,55.73
2022-09-23T12:13:36.457Z,56.61
2022-09-23T12:14:36.467Z,55.18
2022-09-23T12:15:36.877Z,55.88
2022-09-23T12:16:36.478Z,54.95
2022-09-23T12:17:36.408Z,54.72
2022-09-23T12:18:36.404Z,54.93
2022-09-23T12:19:36.388Z,55.20
2022-09-23T12:20:36.413Z,53.89
2022-09-23T12:21:50.257Z,55.20
2022-09-23T12:22:37.345Z,52.01
2022-09-23T12:23:36.366Z,53.14
2022-09-23T12:24:36.347Z,54.15
2022-09-23T12:25:36.646Z,53.87
2022-09-23T12:26:36.328Z,54.17
2022-09-23T12:27:36.276Z,54.02
2022-09-23T12:28:36.315Z,55.86
2022-09-23T12:29:36.264Z,55.66
2022-09-23T12:30:36.324Z,56.76
2022-09-23T12:31:39.740Z,55.26
2022-09-23T12:32:37.215Z,56.06
2022-09-23T12:33:36.206Z,57.64
2022-09-23T12:34:36.277Z,57.21
2022-09-23T12:35:36.179Z,57.39
2022-09-23T12:36:36.170Z,56.88
2022-09-23T12:37:36.166Z,56.56
2022-09-23T12:38:37.601Z,55.93
2022-09-23T12:39:36.163Z,54.62
2022-09-23T12:40:40.059Z,54.12
2022-09-23T12:41:38.284Z,53.69
2022-09-23T12:42:36.079Z,53.39
2022-09-23T12:43:36.069Z,53.69
2022-09-23T12:44:36.079Z,54.10
2022-09-23T12:45:36.437Z,54.30
2022-09-23T12:46:36.035Z,54.39
2022-09-23T12:47:36.019Z,54.80
2022-09-23T12:48:36.008Z,54.50
2022-09-23T12:49:36.000Z,54.39
2022-09-23T12:50:36.012Z,52.32
2022-09-23T12:51:35.965Z,52.44
2022-09-23T12:52:35.957Z,53.75
2022-09-23T12:53:35.951Z,53.34